sensor_id;sensor_type;location;lat;lon;timestamp;P1;durP1;ratioP1;P2;durP2;ratioP2
74523;SDS011;63074;44.696;10.358;2023-03-24T00:00:13;3.20;;;1.73;;
74523;SDS011;63074;44.696;10.358;2023-03-24T00:02:42;3.67;;;2.20;;
74523;SDS011;63074;44.696;10.358;2023-03-24T00:05:11;3.30;;;2.17;;
74523;SDS011;63074;44.696;10.358;2023-03-24T00:07:45;2.58;;;2.13;;
74523;SDS011;63074;44.696;10.358;2023-03-24T00:10:16;4.75;;;2.28;;
74523;SDS011;63074;44.696;10.358;2023-03-24T00:12:45;3.42;;;2.13;;
74523;SDS011;63074;44.696;10.358;2023-03-24T00:15:13;5.22;;;2.30;;
74523;SDS011;63074;44.696;10.358;2023-03-24T00:20:08;2.88;;;1.88;;
74523;SDS011;63074;44.696;10.358;2023-03-24T00:22:44;3.65;;;2.28;;
74523;SDS011;63074;44.696;10.358;2023-03-24T00:25:19;2.50;;;1.77;;
74523;SDS011;63074;44.696;10.358;2023-03-24T00:27:52;3.13;;;2.33;;
74523;SDS011;63074;44.696;10.358;2023-03-24T00:30:19;3.65;;;1.98;;
74523;SDS011;63074;44.696;10.358;2023-03-24T00:32:47;2.47;;;1.77;;
74523;SDS011;63074;44.696;10.358;2023-03-24T00:35:14;3.08;;;1.50;;
74523;SDS011;63074;44.696;10.358;2023-03-24T00:37:41;4.10;;;2.30;;
74523;SDS011;63074;44.696;10.358;2023-03-24T00:40:10;2.67;;;2.28;;
74523;SDS011;63074;44.696;10.358;2023-03-24T00:42:40;2.90;;;2.60;;
74523;SDS011;63074;44.696;10.358;2023-03-24T00:47:37;3.75;;;2.55;;
74523;SDS011;63074;44.696;10.358;2023-03-24T00:50:04;4.30;;;2.38;;
74523;SDS011;63074;44.696;10.358;2023-03-24T00:52:33;3.72;;;3.10;;
74523;SDS011;63074;44.696;10.358;2023-03-24T00:55:00;3.78;;;2.63;;
74523;SDS011;63074;44.696;10.358;2023-03-24T00:57:29;5.57;;;2.88;;
74523;SDS011;63074;44.696;10.358;2023-03-24T00:59:59;3.47;;;3.15;;
74523;SDS011;63074;44.696;10.358;2023-03-24T01:02:37;4.10;;;2.83;;
74523;SDS011;63074;44.696;10.358;2023-03-24T01:05:04;5.22;;;3.15;;
74523;SDS011;63074;44.696;10.358;2023-03-24T01:07:30;3.88;;;3.05;;
74523;SDS011;63074;44.696;10.358;2023-03-24T01:09:57;4.25;;;2.83;;
74523;SDS011;63074;44.696;10.358;2023-03-24T01:14:58;5.03;;;2.75;;
74523;SDS011;63074;44.696;10.358;2023-03-24T01:17:26;4.53;;;2.97;;
74523;SDS011;63074;44.696;10.358;2023-03-24T01:19:55;3.38;;;2.67;;
74523;SDS011;63074;44.696;10.358;2023-03-24T01:22:21;4.40;;;2.85;;
74523;SDS011;63074;44.696;10.358;2023-03-24T01:24:52;3.60;;;2.97;;
74523;SDS011;63074;44.696;10.358;2023-03-24T01:27:19;4.65;;;2.83;;
74523;SDS011;63074;44.696;10.358;2023-03-24T01:29:45;4.28;;;3.03;;
74523;SDS011;63074;44.696;10.358;2023-03-24T01:32:12;4.38;;;2.90;;
74523;SDS011;63074;44.696;10.358;2023-03-24T01:34:38;4.53;;;3.35;;
74523;SDS011;63074;44.696;10.358;2023-03-24T01:37:04;5.93;;;4.05;;
74523;SDS011;63074;44.696;10.358;2023-03-24T01:39:30;4.30;;;3.90;;
74523;SDS011;63074;44.696;10.358;2023-03-24T01:41:56;5.97;;;4.05;;
74523;SDS011;63074;44.696;10.358;2023-03-24T01:44:33;5.10;;;3.85;;
74523;SDS011;63074;44.696;10.358;2023-03-24T01:47:02;6.20;;;3.90;;
74523;SDS011;63074;44.696;10.358;2023-03-24T01:49:52;3.80;;;3.03;;
74523;SDS011;63074;44.696;10.358;2023-03-24T01:52:24;3.47;;;2.75;;
74523;SDS011;63074;44.696;10.358;2023-03-24T01:54:57;4.05;;;2.67;;
74523;SDS011;63074;44.696;10.358;2023-03-24T01:57:33;3.92;;;3.05;;
74523;SDS011;63074;44.696;10.358;2023-03-24T02:00:07;6.40;;;3.28;;
74523;SDS011;63074;44.696;10.358;2023-03-24T02:02:36;5.53;;;3.33;;
74523;SDS011;63074;44.696;10.358;2023-03-24T02:05:10;4.93;;;3.67;;
74523;SDS011;63074;44.696;10.358;2023-03-24T02:07:39;5.68;;;4.00;;
74523;SDS011;63074;44.696;10.358;2023-03-24T02:10:17;4.43;;;3.20;;
74523;SDS011;63074;44.696;10.358;2023-03-24T02:12:45;8.18;;;5.40;;
74523;SDS011;63074;44.696;10.358;2023-03-24T02:15:14;13.20;;;8.18;;
74523;SDS011;63074;44.696;10.358;2023-03-24T02:23:01;11.20;;;6.93;;
74523;SDS011;63074;44.696;10.358;2023-03-24T02:42:48;6.95;;;3.90;;
74523;SDS011;63074;44.696;10.358;2023-03-24T02:51:10;11.82;;;7.00;;
74523;SDS011;63074;44.696;10.358;2023-03-24T02:59:06;10.43;;;6.57;;
74523;SDS011;63074;44.696;10.358;2023-03-24T03:01:42;8.57;;;5.13;;
74523;SDS011;63074;44.696;10.358;2023-03-24T03:04:27;6.97;;;4.32;;
74523;SDS011;63074;44.696;10.358;2023-03-24T03:06:58;5.18;;;3.67;;
74523;SDS011;63074;44.696;10.358;2023-03-24T03:09:33;4.80;;;3.75;;
74523;SDS011;63074;44.696;10.358;2023-03-24T03:12:06;4.97;;;3.70;;
74523;SDS011;63074;44.696;10.358;2023-03-24T03:14:39;5.65;;;4.43;;
74523;SDS011;63074;44.696;10.358;2023-03-24T03:17:12;7.57;;;4.35;;
74523;SDS011;63074;44.696;10.358;2023-03-24T03:19:47;6.38;;;4.78;;
74523;SDS011;63074;44.696;10.358;2023-03-24T03:22:34;7.70;;;4.57;;
74523;SDS011;63074;44.696;10.358;2023-03-24T03:25:09;5.53;;;3.72;;
74523;SDS011;63074;44.696;10.358;2023-03-24T03:27:40;5.43;;;3.67;;
74523;SDS011;63074;44.696;10.358;2023-03-24T03:30:21;5.45;;;3.38;;
74523;SDS011;63074;44.696;10.358;2023-03-24T03:33:22;5.35;;;3.45;;
74523;SDS011;63074;44.696;10.358;2023-03-24T03:35:57;4.65;;;3.78;;
74523;SDS011;63074;44.696;10.358;2023-03-24T03:41:49;5.85;;;3.08;;
74523;SDS011;63074;44.696;10.358;2023-03-24T03:44:15;6.28;;;3.78;;
74523;SDS011;63074;44.696;10.358;2023-03-24T03:46:41;5.75;;;3.70;;
74523;SDS011;63074;44.696;10.358;2023-03-24T03:49:08;6.13;;;4.40;;
74523;SDS011;63074;44.696;10.358;2023-03-24T03:51:34;6.63;;;4.13;;
74523;SDS011;63074;44.696;10.358;2023-03-24T03:54:10;7.00;;;4.72;;
74523;SDS011;63074;44.696;10.358;2023-03-24T03:56:38;7.75;;;4.30;;
74523;SDS011;63074;44.696;10.358;2023-03-24T03:59:06;7.70;;;4.13;;
74523;SDS011;63074;44.696;10.358;2023-03-24T04:01:34;7.05;;;4.65;;
74523;SDS011;63074;44.696;10.358;2023-03-24T04:06:42;6.72;;;3.90;;
74523;SDS011;63074;44.696;10.358;2023-03-24T04:18:42;5.35;;;3.67;;
74523;SDS011;63074;44.696;10.358;2023-03-24T04:20:42;5.22;;;3.55;;
74523;SDS011;63074;44.696;10.358;2023-03-24T04:29:23;6.22;;;3.85;;
74523;SDS011;63074;44.696;10.358;2023-03-24T04:32:09;4.38;;;3.03;;
74523;SDS011;63074;44.696;10.358;2023-03-24T04:34:47;5.85;;;3.47;;
74523;SDS011;63074;44.696;10.358;2023-03-24T04:37:21;4.28;;;3.15;;
74523;SDS011;63074;44.696;10.358;2023-03-24T04:39:50;3.08;;;2.50;;
74523;SDS011;63074;44.696;10.358;2023-03-24T04:42:24;5.95;;;2.88;;
74523;SDS011;63074;44.696;10.358;2023-03-24T04:44:56;7.43;;;3.60;;
74523;SDS011;63074;44.696;10.358;2023-03-24T04:47:24;5.90;;;2.83;;
74523;SDS011;63074;44.696;10.358;2023-03-24T04:50:03;4.20;;;3.03;;
74523;SDS011;63074;44.696;10.358;2023-03-24T04:52:33;4.47;;;2.95;;
74523;SDS011;63074;44.696;10.358;2023-03-24T04:54:59;4.72;;;3.22;;
74523;SDS011;63074;44.696;10.358;2023-03-24T04:57:27;4.78;;;2.83;;
74523;SDS011;63074;44.696;10.358;2023-03-24T04:59:53;5.07;;;2.72;;
74523;SDS011;63074;44.696;10.358;2023-03-24T05:02:20;4.40;;;3.08;;
74523;SDS011;63074;44.696;10.358;2023-03-24T05:04:46;6.50;;;3.45;;
74523;SDS011;63074;44.696;10.358;2023-03-24T05:07:12;5.57;;;3.65;;
74523;SDS011;63074;44.696;10.358;2023-03-24T05:09:39;3.97;;;2.83;;
74523;SDS011;63074;44.696;10.358;2023-03-24T05:12:05;4.38;;;3.40;;
74523;SDS011;63074;44.696;10.358;2023-03-24T05:14:32;5.18;;;3.25;;
74523;SDS011;63074;44.696;10.358;2023-03-24T05:16:58;4.13;;;2.85;;
74523;SDS011;63074;44.696;10.358;2023-03-24T05:19:24;3.53;;;2.88;;
74523;SDS011;63074;44.696;10.358;2023-03-24T05:21:50;3.38;;;2.60;;
74523;SDS011;63074;44.696;10.358;2023-03-24T05:24:17;4.30;;;3.15;;
74523;SDS011;63074;44.696;10.358;2023-03-24T05:26:44;4.95;;;4.22;;
74523;SDS011;63074;44.696;10.358;2023-03-24T05:29:10;6.88;;;3.28;;
74523;SDS011;63074;44.696;10.358;2023-03-24T05:31:36;4.88;;;4.18;;
74523;SDS011;63074;44.696;10.358;2023-03-24T05:34:02;6.57;;;3.95;;
74523;SDS011;63074;44.696;10.358;2023-03-24T05:36:29;6.93;;;4.18;;
74523;SDS011;63074;44.696;10.358;2023-03-24T05:38:55;6.60;;;3.75;;
74523;SDS011;63074;44.696;10.358;2023-03-24T05:41:21;5.78;;;4.07;;
74523;SDS011;63074;44.696;10.358;2023-03-24T05:43:47;6.45;;;3.45;;
74523;SDS011;63074;44.696;10.358;2023-03-24T05:46:13;4.75;;;3.45;;
74523;SDS011;63074;44.696;10.358;2023-03-24T05:48:40;8.40;;;5.68;;
74523;SDS011;63074;44.696;10.358;2023-03-24T05:51:06;6.82;;;4.45;;
74523;SDS011;63074;44.696;10.358;2023-03-24T05:53:32;6.18;;;4.22;;
74523;SDS011;63074;44.696;10.358;2023-03-24T05:55:58;6.20;;;4.50;;
74523;SDS011;63074;44.696;10.358;2023-03-24T05:58:25;5.07;;;4.38;;
74523;SDS011;63074;44.696;10.358;2023-03-24T06:00:51;5.32;;;3.65;;
74523;SDS011;63074;44.696;10.358;2023-03-24T06:03:18;6.60;;;4.00;;
74523;SDS011;63074;44.696;10.358;2023-03-24T06:05:44;9.43;;;4.55;;
74523;SDS011;63074;44.696;10.358;2023-03-24T06:08:11;8.93;;;4.82;;
74523;SDS011;63074;44.696;10.358;2023-03-24T06:10:38;6.43;;;3.97;;
74523;SDS011;63074;44.696;10.358;2023-03-24T06:13:05;7.85;;;6.88;;
74523;SDS011;63074;44.696;10.358;2023-03-24T06:15:33;21.38;;;19.08;;
74523;SDS011;63074;44.696;10.358;2023-03-24T06:17:59;12.77;;;7.03;;
74523;SDS011;63074;44.696;10.358;2023-03-24T06:20:25;7.57;;;4.75;;
74523;SDS011;63074;44.696;10.358;2023-03-24T06:22:52;7.43;;;4.50;;
74523;SDS011;63074;44.696;10.358;2023-03-24T06:25:23;6.50;;;4.35;;
74523;SDS011;63074;44.696;10.358;2023-03-24T06:27:51;6.85;;;4.30;;
74523;SDS011;63074;44.696;10.358;2023-03-24T06:30:18;5.88;;;4.18;;
74523;SDS011;63074;44.696;10.358;2023-03-24T06:32:44;6.25;;;4.30;;
74523;SDS011;63074;44.696;10.358;2023-03-24T06:35:11;9.27;;;4.07;;
74523;SDS011;63074;44.696;10.358;2023-03-24T06:37:39;9.10;;;4.97;;
74523;SDS011;63074;44.696;10.358;2023-03-24T06:40:05;10.13;;;5.00;;
74523;SDS011;63074;44.696;10.358;2023-03-24T06:42:34;7.03;;;4.82;;
74523;SDS011;63074;44.696;10.358;2023-03-24T06:45:01;7.32;;;4.60;;
74523;SDS011;63074;44.696;10.358;2023-03-24T06:47:27;9.57;;;5.20;;
74523;SDS011;63074;44.696;10.358;2023-03-24T06:49:53;9.15;;;4.32;;
74523;SDS011;63074;44.696;10.358;2023-03-24T06:52:20;7.93;;;5.22;;
74523;SDS011;63074;44.696;10.358;2023-03-24T06:54:46;7.32;;;5.15;;
74523;SDS011;63074;44.696;10.358;2023-03-24T06:57:12;7.28;;;4.97;;
74523;SDS011;63074;44.696;10.358;2023-03-24T06:59:39;5.95;;;4.78;;
74523;SDS011;63074;44.696;10.358;2023-03-24T07:02:05;6.57;;;4.20;;
74523;SDS011;63074;44.696;10.358;2023-03-24T07:04:34;8.13;;;4.50;;
74523;SDS011;63074;44.696;10.358;2023-03-24T07:07:00;6.22;;;3.95;;
74523;SDS011;63074;44.696;10.358;2023-03-24T07:09:27;5.95;;;3.75;;
74523;SDS011;63074;44.696;10.358;2023-03-24T07:11:54;6.75;;;4.72;;
74523;SDS011;63074;44.696;10.358;2023-03-24T07:14:20;5.78;;;3.65;;
74523;SDS011;63074;44.696;10.358;2023-03-24T07:16:50;5.53;;;4.25;;
74523;SDS011;63074;44.696;10.358;2023-03-24T07:19:17;5.05;;;3.45;;
74523;SDS011;63074;44.696;10.358;2023-03-24T07:21:44;4.38;;;3.28;;
74523;SDS011;63074;44.696;10.358;2023-03-24T07:24:13;6.95;;;4.13;;
74523;SDS011;63074;44.696;10.358;2023-03-24T07:26:40;6.72;;;3.67;;
74523;SDS011;63074;44.696;10.358;2023-03-24T07:29:07;7.38;;;3.38;;
74523;SDS011;63074;44.696;10.358;2023-03-24T07:31:33;4.72;;;3.47;;
74523;SDS011;63074;44.696;10.358;2023-03-24T07:34:05;6.45;;;3.35;;
74523;SDS011;63074;44.696;10.358;2023-03-24T07:38:57;5.00;;;2.67;;
74523;SDS011;63074;44.696;10.358;2023-03-24T07:41:23;4.05;;;3.08;;
74523;SDS011;63074;44.696;10.358;2023-03-24T07:43:51;3.88;;;3.13;;
74523;SDS011;63074;44.696;10.358;2023-03-24T07:46:17;6.13;;;3.70;;
74523;SDS011;63074;44.696;10.358;2023-03-24T07:48:43;5.43;;;2.78;;
74523;SDS011;63074;44.696;10.358;2023-03-24T07:51:10;4.28;;;2.78;;
74523;SDS011;63074;44.696;10.358;2023-03-24T07:53:36;5.95;;;2.60;;
74523;SDS011;63074;44.696;10.358;2023-03-24T07:56:03;4.40;;;2.60;;
74523;SDS011;63074;44.696;10.358;2023-03-24T07:58:29;5.13;;;3.35;;
74523;SDS011;63074;44.696;10.358;2023-03-24T08:00:55;5.90;;;3.40;;
74523;SDS011;63074;44.696;10.358;2023-03-24T08:03:21;6.35;;;3.30;;
74523;SDS011;63074;44.696;10.358;2023-03-24T08:05:51;5.57;;;3.30;;
74523;SDS011;63074;44.696;10.358;2023-03-24T08:08:19;5.22;;;3.13;;
74523;SDS011;63074;44.696;10.358;2023-03-24T08:10:46;2.00;;;0.90;;
74523;SDS011;63074;44.696;10.358;2023-03-24T08:13:14;1.85;;;1.30;;
74523;SDS011;63074;44.696;10.358;2023-03-24T08:15:40;2.33;;;0.95;;
74523;SDS011;63074;44.696;10.358;2023-03-24T08:18:07;2.40;;;1.15;;
74523;SDS011;63074;44.696;10.358;2023-03-24T08:20:33;1.73;;;1.33;;
74523;SDS011;63074;44.696;10.358;2023-03-24T08:23:01;1.95;;;1.52;;
74523;SDS011;63074;44.696;10.358;2023-03-24T08:25:28;1.60;;;1.48;;
74523;SDS011;63074;44.696;10.358;2023-03-24T08:27:55;1.90;;;1.60;;
74523;SDS011;63074;44.696;10.358;2023-03-24T08:30:22;2.00;;;1.67;;
74523;SDS011;63074;44.696;10.358;2023-03-24T08:32:51;2.25;;;1.75;;
74523;SDS011;63074;44.696;10.358;2023-03-24T08:35:20;3.05;;;1.60;;
74523;SDS011;63074;44.696;10.358;2023-03-24T08:37:52;3.95;;;1.40;;
74523;SDS011;63074;44.696;10.358;2023-03-24T08:40:19;2.67;;;0.98;;
74523;SDS011;63074;44.696;10.358;2023-03-24T08:42:52;2.38;;;1.17;;
74523;SDS011;63074;44.696;10.358;2023-03-24T08:45:21;3.90;;;1.05;;
74523;SDS011;63074;44.696;10.358;2023-03-24T08:47:49;1.80;;;1.20;;
74523;SDS011;63074;44.696;10.358;2023-03-24T08:50:17;2.60;;;0.80;;
74523;SDS011;63074;44.696;10.358;2023-03-24T08:52:45;1.42;;;1.17;;
74523;SDS011;63074;44.696;10.358;2023-03-24T08:55:12;1.48;;;1.13;;
74523;SDS011;63074;44.696;10.358;2023-03-24T08:57:39;2.10;;;1.08;;
74523;SDS011;63074;44.696;10.358;2023-03-24T09:00:05;1.83;;;0.50;;
74523;SDS011;63074;44.696;10.358;2023-03-24T09:02:42;1.90;;;0.90;;
74523;SDS011;63074;44.696;10.358;2023-03-24T09:05:13;1.20;;;0.90;;
74523;SDS011;63074;44.696;10.358;2023-03-24T09:07:41;2.50;;;1.02;;
74523;SDS011;63074;44.696;10.358;2023-03-24T09:10:08;2.00;;;0.65;;
74523;SDS011;63074;44.696;10.358;2023-03-24T09:12:35;2.60;;;0.98;;
74523;SDS011;63074;44.696;10.358;2023-03-24T09:15:03;1.50;;;0.88;;
74523;SDS011;63074;44.696;10.358;2023-03-24T09:17:30;1.85;;;0.88;;
74523;SDS011;63074;44.696;10.358;2023-03-24T09:19:57;1.08;;;0.98;;
74523;SDS011;63074;44.696;10.358;2023-03-24T09:22:23;2.33;;;1.52;;
74523;SDS011;63074;44.696;10.358;2023-03-24T09:24:49;1.08;;;0.63;;
74523;SDS011;63074;44.696;10.358;2023-03-24T09:27:16;2.40;;;0.88;;
74523;SDS011;63074;44.696;10.358;2023-03-24T09:29:42;1.50;;;0.82;;
74523;SDS011;63074;44.696;10.358;2023-03-24T09:32:09;1.55;;;1.30;;
74523;SDS011;63074;44.696;10.358;2023-03-24T09:34:35;1.95;;;0.95;;
74523;SDS011;63074;44.696;10.358;2023-03-24T09:37:02;1.40;;;1.15;;
74523;SDS011;63074;44.696;10.358;2023-03-24T09:39:29;2.20;;;0.90;;
74523;SDS011;63074;44.696;10.358;2023-03-24T09:41:56;1.88;;;1.35;;
74523;SDS011;63074;44.696;10.358;2023-03-24T09:49:54;1.92;;;0.82;;
74523;SDS011;63074;44.696;10.358;2023-03-24T09:52:35;2.53;;;1.58;;
74523;SDS011;63074;44.696;10.358;2023-03-24T09:55:09;2.10;;;0.73;;
74523;SDS011;63074;44.696;10.358;2023-03-24T09:57:41;3.80;;;1.33;;
74523;SDS011;63074;44.696;10.358;2023-03-24T10:02:44;2.38;;;0.77;;
74523;SDS011;63074;44.696;10.358;2023-03-24T10:05:14;1.73;;;1.08;;
74523;SDS011;63074;44.696;10.358;2023-03-24T10:07:48;5.13;;;3.05;;
74523;SDS011;63074;44.696;10.358;2023-03-24T10:13:26;4.82;;;3.38;;
74523;SDS011;63074;44.696;10.358;2023-03-24T10:16:03;6.10;;;3.50;;
74523;SDS011;63074;44.696;10.358;2023-03-24T10:18:35;5.32;;;3.88;;
74523;SDS011;63074;44.696;10.358;2023-03-24T10:21:21;5.63;;;2.70;;
74523;SDS011;63074;44.696;10.358;2023-03-24T10:23:58;6.05;;;2.80;;
74523;SDS011;63074;44.696;10.358;2023-03-24T10:26:48;3.65;;;2.15;;
74523;SDS011;63074;44.696;10.358;2023-03-24T10:29:24;2.95;;;2.10;;
74523;SDS011;63074;44.696;10.358;2023-03-24T10:31:58;2.72;;;2.50;;
74523;SDS011;63074;44.696;10.358;2023-03-24T10:34:40;2.17;;;1.23;;
74523;SDS011;63074;44.696;10.358;2023-03-24T10:37:09;2.45;;;1.50;;
74523;SDS011;63074;44.696;10.358;2023-03-24T10:39:38;2.30;;;1.10;;
74523;SDS011;63074;44.696;10.358;2023-03-24T10:42:04;2.22;;;1.30;;
74523;SDS011;63074;44.696;10.358;2023-03-24T10:44:31;1.85;;;1.60;;
74523;SDS011;63074;44.696;10.358;2023-03-24T10:46:58;2.45;;;1.52;;
74523;SDS011;63074;44.696;10.358;2023-03-24T10:49:28;2.30;;;1.58;;
74523;SDS011;63074;44.696;10.358;2023-03-24T10:51:59;2.95;;;1.52;;
74523;SDS011;63074;44.696;10.358;2023-03-24T10:54:28;2.03;;;1.60;;
74523;SDS011;63074;44.696;10.358;2023-03-24T11:00:15;2.45;;;1.02;;
74523;SDS011;63074;44.696;10.358;2023-03-24T11:02:33;3.10;;;1.10;;
74523;SDS011;63074;44.696;10.358;2023-03-24T11:07:43;1.65;;;0.85;;
74523;SDS011;63074;44.696;10.358;2023-03-24T11:10:15;1.30;;;0.93;;
74523;SDS011;63074;44.696;10.358;2023-03-24T11:15:26;1.55;;;1.13;;
74523;SDS011;63074;44.696;10.358;2023-03-24T11:20:39;1.75;;;1.00;;
74523;SDS011;63074;44.696;10.358;2023-03-24T11:25:38;2.03;;;0.35;;
74523;SDS011;63074;44.696;10.358;2023-03-24T11:28:13;2.42;;;1.02;;
74523;SDS011;63074;44.696;10.358;2023-03-24T11:30:46;1.80;;;0.75;;
74523;SDS011;63074;44.696;10.358;2023-03-24T11:33:26;3.83;;;1.08;;
74523;SDS011;63074;44.696;10.358;2023-03-24T11:35:57;3.83;;;1.60;;
74523;SDS011;63074;44.696;10.358;2023-03-24T11:38:30;3.65;;;1.02;;
74523;SDS011;63074;44.696;10.358;2023-03-24T11:40:59;2.60;;;0.88;;
74523;SDS011;63074;44.696;10.358;2023-03-24T11:43:29;3.03;;;1.05;;
74523;SDS011;63074;44.696;10.358;2023-03-24T11:51:04;2.08;;;1.15;;
74523;SDS011;63074;44.696;10.358;2023-03-24T11:53:39;1.77;;;0.68;;
74523;SDS011;63074;44.696;10.358;2023-03-24T11:56:13;3.28;;;0.85;;
74523;SDS011;63074;44.696;10.358;2023-03-24T11:58:51;2.30;;;0.85;;
74523;SDS011;63074;44.696;10.358;2023-03-24T12:01:28;2.75;;;0.88;;
74523;SDS011;63074;44.696;10.358;2023-03-24T12:04:18;1.45;;;1.05;;
74523;SDS011;63074;44.696;10.358;2023-03-24T12:12:19;1.98;;;1.02;;
74523;SDS011;63074;44.696;10.358;2023-03-24T12:17:41;2.33;;;1.08;;
74523;SDS011;63074;44.696;10.358;2023-03-24T12:20:20;1.83;;;0.68;;
74523;SDS011;63074;44.696;10.358;2023-03-24T12:22:59;1.75;;;0.95;;
74523;SDS011;63074;44.696;10.358;2023-03-24T12:25:38;2.33;;;0.98;;
74523;SDS011;63074;44.696;10.358;2023-03-24T12:30:37;1.38;;;0.73;;
74523;SDS011;63074;44.696;10.358;2023-03-24T12:36:31;0.85;;;0.75;;
74523;SDS011;63074;44.696;10.358;2023-03-24T12:39:18;1.08;;;0.68;;
74523;SDS011;63074;44.696;10.358;2023-03-24T12:53:05;1.02;;;0.70;;
74523;SDS011;63074;44.696;10.358;2023-03-24T12:55:52;2.05;;;1.40;;
74523;SDS011;63074;44.696;10.358;2023-03-24T12:58:29;2.90;;;0.68;;
74523;SDS011;63074;44.696;10.358;2023-03-24T13:04:19;1.73;;;0.82;;
74523;SDS011;63074;44.696;10.358;2023-03-24T13:07:00;1.67;;;0.70;;
74523;SDS011;63074;44.696;10.358;2023-03-24T13:17:19;1.15;;;0.20;;
74523;SDS011;63074;44.696;10.358;2023-03-24T13:20:00;1.88;;;0.80;;
74523;SDS011;63074;44.696;10.358;2023-03-24T13:22:31;2.10;;;0.85;;
74523;SDS011;63074;44.696;10.358;2023-03-24T13:25:01;2.05;;;0.77;;
74523;SDS011;63074;44.696;10.358;2023-03-24T13:27:36;1.38;;;0.43;;
74523;SDS011;63074;44.696;10.358;2023-03-24T13:32:59;1.20;;;0.35;;
74523;SDS011;63074;44.696;10.358;2023-03-24T13:38:32;1.63;;;0.77;;
74523;SDS011;63074;44.696;10.358;2023-03-24T13:41:03;1.92;;;0.82;;
74523;SDS011;63074;44.696;10.358;2023-03-24T13:43:31;2.17;;;0.73;;
74523;SDS011;63074;44.696;10.358;2023-03-24T13:45:59;0.90;;;0.57;;
74523;SDS011;63074;44.696;10.358;2023-03-24T13:48:37;1.45;;;0.50;;
74523;SDS011;63074;44.696;10.358;2023-03-24T13:51:23;1.40;;;0.68;;
74523;SDS011;63074;44.696;10.358;2023-03-24T13:56:32;2.10;;;0.73;;
74523;SDS011;63074;44.696;10.358;2023-03-24T14:05:31;1.55;;;0.80;;
74523;SDS011;63074;44.696;10.358;2023-03-24T14:07:40;3.65;;;0.73;;
74523;SDS011;63074;44.696;10.358;2023-03-24T14:12:53;1.05;;;0.73;;
74523;SDS011;63074;44.696;10.358;2023-03-24T14:23:43;1.38;;;0.50;;
74523;SDS011;63074;44.696;10.358;2023-03-24T14:28:56;1.83;;;0.68;;
74523;SDS011;63074;44.696;10.358;2023-03-24T14:31:26;1.05;;;0.55;;
74523;SDS011;63074;44.696;10.358;2023-03-24T14:34:03;1.88;;;0.55;;
74523;SDS011;63074;44.696;10.358;2023-03-24T14:36:44;0.80;;;0.40;;
74523;SDS011;63074;44.696;10.358;2023-03-24T14:41:47;2.13;;;0.73;;
74523;SDS011;63074;44.696;10.358;2023-03-24T14:44:50;1.08;;;0.65;;
74523;SDS011;63074;44.696;10.358;2023-03-24T14:47:14;0.80;;;0.55;;
74523;SDS011;63074;44.696;10.358;2023-03-24T14:49:43;1.90;;;0.77;;
74523;SDS011;63074;44.696;10.358;2023-03-24T14:52:21;2.42;;;0.60;;
74523;SDS011;63074;44.696;10.358;2023-03-24T14:54:57;1.13;;;0.77;;
74523;SDS011;63074;44.696;10.358;2023-03-24T14:57:28;1.50;;;0.50;;
74523;SDS011;63074;44.696;10.358;2023-03-24T15:02:55;2.63;;;1.27;;
74523;SDS011;63074;44.696;10.358;2023-03-24T15:05:34;2.15;;;0.73;;
74523;SDS011;63074;44.696;10.358;2023-03-24T15:08:07;1.55;;;0.98;;
74523;SDS011;63074;44.696;10.358;2023-03-24T15:10:39;1.63;;;0.73;;
74523;SDS011;63074;44.696;10.358;2023-03-24T15:13:27;0.80;;;0.68;;
74523;SDS011;63074;44.696;10.358;2023-03-24T15:16:02;1.83;;;0.52;;
74523;SDS011;63074;44.696;10.358;2023-03-24T15:18:31;3.22;;;0.82;;
74523;SDS011;63074;44.696;10.358;2023-03-24T15:20:58;1.85;;;0.85;;
74523;SDS011;63074;44.696;10.358;2023-03-24T15:23:26;2.03;;;0.63;;
74523;SDS011;63074;44.696;10.358;2023-03-24T15:25:53;1.25;;;1.13;;
74523;SDS011;63074;44.696;10.358;2023-03-24T15:28:21;2.33;;;0.60;;
74523;SDS011;63074;44.696;10.358;2023-03-24T15:30:54;1.25;;;0.82;;
74523;SDS011;63074;44.696;10.358;2023-03-24T15:33:25;1.35;;;0.75;;
74523;SDS011;63074;44.696;10.358;2023-03-24T15:35:56;1.60;;;0.47;;
74523;SDS011;63074;44.696;10.358;2023-03-24T15:38:30;1.30;;;0.90;;
74523;SDS011;63074;44.696;10.358;2023-03-24T15:41:04;2.35;;;1.08;;
74523;SDS011;63074;44.696;10.358;2023-03-24T15:43:40;3.05;;;0.88;;
74523;SDS011;63074;44.696;10.358;2023-03-24T15:46:29;4.07;;;0.65;;
74523;SDS011;63074;44.696;10.358;2023-03-24T15:48:57;11.50;;;1.25;;
74523;SDS011;63074;44.696;10.358;2023-03-24T15:54:22;2.15;;;1.02;;
74523;SDS011;63074;44.696;10.358;2023-03-24T15:57:10;2.30;;;0.80;;
74523;SDS011;63074;44.696;10.358;2023-03-24T15:59:48;2.30;;;0.88;;
74523;SDS011;63074;44.696;10.358;2023-03-24T16:02:31;1.63;;;0.93;;
74523;SDS011;63074;44.696;10.358;2023-03-24T16:05:04;4.13;;;1.20;;
74523;SDS011;63074;44.696;10.358;2023-03-24T16:07:58;1.52;;;0.93;;
74523;SDS011;63074;44.696;10.358;2023-03-24T16:10:31;1.48;;;0.70;;
74523;SDS011;63074;44.696;10.358;2023-03-24T16:15:46;2.53;;;0.82;;
74523;SDS011;63074;44.696;10.358;2023-03-24T16:18:22;2.20;;;0.82;;
74523;SDS011;63074;44.696;10.358;2023-03-24T16:20:58;4.50;;;1.45;;
74523;SDS011;63074;44.696;10.358;2023-03-24T16:23:25;1.83;;;0.93;;
74523;SDS011;63074;44.696;10.358;2023-03-24T16:25:51;2.90;;;1.00;;
74523;SDS011;63074;44.696;10.358;2023-03-24T16:28:19;1.88;;;0.47;;
74523;SDS011;63074;44.696;10.358;2023-03-24T16:30:48;1.48;;;0.73;;
74523;SDS011;63074;44.696;10.358;2023-03-24T16:33:22;1.23;;;0.75;;
74523;SDS011;63074;44.696;10.358;2023-03-24T16:35:48;1.45;;;0.68;;
74523;SDS011;63074;44.696;10.358;2023-03-24T16:38:15;2.22;;;1.15;;
74523;SDS011;63074;44.696;10.358;2023-03-24T16:40:45;6.70;;;2.70;;
74523;SDS011;63074;44.696;10.358;2023-03-24T16:43:14;8.50;;;2.20;;
74523;SDS011;63074;44.696;10.358;2023-03-24T16:45:43;3.05;;;1.30;;
74523;SDS011;63074;44.696;10.358;2023-03-24T16:48:10;1.67;;;0.73;;
74523;SDS011;63074;44.696;10.358;2023-03-24T16:53:08;1.58;;;0.63;;
74523;SDS011;63074;44.696;10.358;2023-03-24T16:55:35;1.42;;;0.75;;
74523;SDS011;63074;44.696;10.358;2023-03-24T16:58:03;2.47;;;0.93;;
74523;SDS011;63074;44.696;10.358;2023-03-24T17:00:30;2.15;;;0.90;;
74523;SDS011;63074;44.696;10.358;2023-03-24T17:02:57;2.63;;;1.33;;
74523;SDS011;63074;44.696;10.358;2023-03-24T17:05:33;2.00;;;0.85;;
74523;SDS011;63074;44.696;10.358;2023-03-24T17:08:07;2.83;;;1.02;;
74523;SDS011;63074;44.696;10.358;2023-03-24T17:10:34;1.33;;;1.05;;
74523;SDS011;63074;44.696;10.358;2023-03-24T17:13:01;1.63;;;0.63;;
74523;SDS011;63074;44.696;10.358;2023-03-24T17:15:28;1.40;;;0.77;;
74523;SDS011;63074;44.696;10.358;2023-03-24T17:17:55;4.43;;;1.17;;
74523;SDS011;63074;44.696;10.358;2023-03-24T17:20:22;6.80;;;2.10;;
74523;SDS011;63074;44.696;10.358;2023-03-24T17:22:49;1.30;;;0.40;;
74523;SDS011;63074;44.696;10.358;2023-03-24T17:25:18;3.70;;;1.20;;
74523;SDS011;63074;44.696;10.358;2023-03-24T17:27:46;1.48;;;1.13;;
74523;SDS011;63074;44.696;10.358;2023-03-24T17:30:17;1.52;;;1.42;;
74523;SDS011;63074;44.696;10.358;2023-03-24T17:32:45;1.38;;;0.70;;
74523;SDS011;63074;44.696;10.358;2023-03-24T17:35:16;2.25;;;0.63;;
74523;SDS011;63074;44.696;10.358;2023-03-24T17:37:44;3.42;;;1.67;;
74523;SDS011;63074;44.696;10.358;2023-03-24T17:40:12;7.38;;;2.75;;
74523;SDS011;63074;44.696;10.358;2023-03-24T17:42:41;3.13;;;1.35;;
74523;SDS011;63074;44.696;10.358;2023-03-24T17:45:09;1.65;;;0.98;;